sensor_id;sensor_type;location;lat;lon;timestamp;temperature;humidity
3980;DHT22;2004;52.452;13.120;2022-12-13T00:00:47;-1.10;99.90
3980;DHT22;2004;52.452;13.120;2022-12-13T00:08:37;-1.10;99.90
3980;DHT22;2004;52.452;13.120;2022-12-13T00:16:28;-1.10;99.90
3980;DHT22;2004;52.452;13.120;2022-12-13T00:24:18;-1.10;99.90
3980;DHT22;2004;52.452;13.120;2022-12-13T00:32:09;-1.10;99.90
3980;DHT22;2004;52.452;13.120;2022-12-13T00:39:59;-1.10;99.90
3980;DHT22;2004;52.452;13.120;2022-12-13T00:47:50;-1.10;99.90
3980;DHT22;2004;52.452;13.120;2022-12-13T00:55:40;-1.10;99.90
3980;DHT22;2004;52.452;13.120;2022-12-13T01:03:31;-1.20;99.90
3980;DHT22;2004;52.452;13.120;2022-12-13T01:11:22;-1.20;99.90
3980;DHT22;2004;52.452;13.120;2022-12-13T01:19:12;-1.20;99.90
3980;DHT22;2004;52.452;13.120;2022-12-13T01:27:03;-1.20;99.90
3980;DHT22;2004;52.452;13.120;2022-12-13T01:34:54;-1.20;99.90
3980;DHT22;2004;52.452;13.120;2022-12-13T01:42:44;-1.20;99.90
3980;DHT22;2004;52.452;13.120;2022-12-13T01:50:40;-1.20;99.90
3980;DHT22;2004;52.452;13.120;2022-12-13T01:58:32;-1.20;99.90
3980;DHT22;2004;52.452;13.120;2022-12-13T02:06:39;-1.20;99.90
3980;DHT22;2004;52.452;13.120;2022-12-13T02:14:31;-1.20;99.90
3980;DHT22;2004;52.452;13.120;2022-12-13T02:30:37;-1.20;99.90
3980;DHT22;2004;52.452;13.120;2022-12-13T02:46:57;-1.20;99.90
3980;DHT22;2004;52.452;13.120;2022-12-13T02:54:49;-1.20;99.90
3980;DHT22;2004;52.452;13.120;2022-12-13T03:03:24;-1.20;99.90
3980;DHT22;2004;52.452;13.120;2022-12-13T03:11:19;-1.20;99.90
3980;DHT22;2004;52.452;13.120;2022-12-13T03:19:11;-1.30;99.90
3980;DHT22;2004;52.452;13.120;2022-12-13T03:27:03;-1.30;99.90
3980;DHT22;2004;52.452;13.120;2022-12-13T03:34:54;-1.20;99.90
3980;DHT22;2004;52.452;13.120;2022-12-13T03:42:45;-1.30;99.90
3980;DHT22;2004;52.452;13.120;2022-12-13T03:50:35;-1.30;99.90
3980;DHT22;2004;52.452;13.120;2022-12-13T03:58:26;-1.30;99.90
3980;DHT22;2004;52.452;13.120;2022-12-13T04:06:16;-1.30;99.90
3980;DHT22;2004;52.452;13.120;2022-12-13T04:14:07;-1.20;99.90
3980;DHT22;2004;52.452;13.120;2022-12-13T04:21:57;-1.30;99.90
3980;DHT22;2004;52.452;13.120;2022-12-13T04:29:48;-1.20;99.90
3980;DHT22;2004;52.452;13.120;2022-12-13T04:37:38;-1.20;99.90
3980;DHT22;2004;52.452;13.120;2022-12-13T04:45:28;-1.20;99.90
3980;DHT22;2004;52.452;13.120;2022-12-13T04:53:19;-1.20;99.90
3980;DHT22;2004;52.452;13.120;2022-12-13T05:01:10;-1.20;99.90
3980;DHT22;2004;52.452;13.120;2022-12-13T05:09:00;-1.20;99.90
3980;DHT22;2004;52.452;13.120;2022-12-13T05:16:51;-1.20;99.90
3980;DHT22;2004;52.452;13.120;2022-12-13T05:24:42;-1.20;99.90
3980;DHT22;2004;52.452;13.120;2022-12-13T05:32:34;-1.20;99.90
3980;DHT22;2004;52.452;13.120;2022-12-13T05:40:30;-1.20;99.90
3980;DHT22;2004;52.452;13.120;2022-12-13T05:48:20;-1.30;99.90
3980;DHT22;2004;52.452;13.120;2022-12-13T05:56:11;-1.30;99.90
3980;DHT22;2004;52.452;13.120;2022-12-13T06:04:02;-1.30;99.90
3980;DHT22;2004;52.452;13.120;2022-12-13T06:11:52;-1.30;99.90
3980;DHT22;2004;52.452;13.120;2022-12-13T06:19:43;-1.40;99.90
3980;DHT22;2004;52.452;13.120;2022-12-13T06:27:33;-1.40;99.90
3980;DHT22;2004;52.452;13.120;2022-12-13T06:35:24;-1.40;99.90
3980;DHT22;2004;52.452;13.120;2022-12-13T06:43:15;-1.40;99.90
3980;DHT22;2004;52.452;13.120;2022-12-13T06:51:06;-1.40;99.90
3980;DHT22;2004;52.452;13.120;2022-12-13T06:58:57;-1.40;99.90
3980;DHT22;2004;52.452;13.120;2022-12-13T07:06:48;-1.40;99.90
3980;DHT22;2004;52.452;13.120;2022-12-13T07:14:38;-1.50;99.90
3980;DHT22;2004;52.452;13.120;2022-12-13T07:22:29;-1.50;99.90
3980;DHT22;2004;52.452;13.120;2022-12-13T07:30:20;-1.50;99.90
3980;DHT22;2004;52.452;13.120;2022-12-13T07:38:11;-1.50;99.90
3980;DHT22;2004;52.452;13.120;2022-12-13T07:46:04;-1.50;99.90
3980;DHT22;2004;52.452;13.120;2022-12-13T07:53:54;-1.50;99.90
3980;DHT22;2004;52.452;13.120;2022-12-13T08:01:46;-1.40;99.90
3980;DHT22;2004;52.452;13.120;2022-12-13T08:09:37;-1.40;99.90
3980;DHT22;2004;52.452;13.120;2022-12-13T08:17:27;-1.40;99.90
3980;DHT22;2004;52.452;13.120;2022-12-13T08:25:18;-1.40;99.90
3980;DHT22;2004;52.452;13.120;2022-12-13T08:33:08;-1.40;99.90
3980;DHT22;2004;52.452;13.120;2022-12-13T08:40:59;-1.30;99.90
3980;DHT22;2004;52.452;13.120;2022-12-13T08:48:52;-1.30;99.90
3980;DHT22;2004;52.452;13.120;2022-12-13T08:56:42;-1.30;99.90
3980;DHT22;2004;52.452;13.120;2022-12-13T09:04:33;-1.20;99.90
3980;DHT22;2004;52.452;13.120;2022-12-13T09:12:23;-1.20;99.90
3980;DHT22;2004;52.452;13.120;2022-12-13T09:20:14;-1.10;99.90
3980;DHT22;2004;52.452;13.120;2022-12-13T09:28:06;-1.10;99.90
3980;DHT22;2004;52.452;13.120;2022-12-13T09:35:57;-1.10;99.90
3980;DHT22;2004;52.452;13.120;2022-12-13T09:43:53;-1.10;99.90
3980;DHT22;2004;52.452;13.120;2022-12-13T09:51:48;-1.10;99.90
3980;DHT22;2004;52.452;13.120;2022-12-13T09:59:41;-1.10;99.90
3980;DHT22;2004;52.452;13.120;2022-12-13T10:07:31;-1.20;99.90
3980;DHT22;2004;52.452;13.120;2022-12-13T10:15:22;-1.20;99.90
3980;DHT22;2004;52.452;13.120;2022-12-13T10:23:14;-1.20;99.90
3980;DHT22;2004;52.452;13.120;2022-12-13T10:31:05;-1.10;99.90
3980;DHT22;2004;52.452;13.120;2022-12-13T10:38:56;-1.00;99.90
3980;DHT22;2004;52.452;13.120;2022-12-13T10:55:05;-0.90;99.90
3980;DHT22;2004;52.452;13.120;2022-12-13T11:02:57;-0.90;99.90
3980;DHT22;2004;52.452;13.120;2022-12-13T11:11:01;-0.80;99.90
3980;DHT22;2004;52.452;13.120;2022-12-13T11:18:55;-0.80;99.90
3980;DHT22;2004;52.452;13.120;2022-12-13T11:26:54;-0.80;99.90
3980;DHT22;2004;52.452;13.120;2022-12-13T11:51:24;-0.70;99.90
3980;DHT22;2004;52.452;13.120;2022-12-13T11:59:44;-0.60;99.90
3980;DHT22;2004;52.452;13.120;2022-12-13T12:07:42;-0.60;99.90
3980;DHT22;2004;52.452;13.120;2022-12-13T12:15:39;-0.50;99.90
3980;DHT22;2004;52.452;13.120;2022-12-13T12:23:55;-0.50;99.90
3980;DHT22;2004;52.452;13.120;2022-12-13T12:32:08;-0.50;99.90
3980;DHT22;2004;52.452;13.120;2022-12-13T12:40:15;-0.50;99.90
3980;DHT22;2004;52.452;13.120;2022-12-13T12:48:40;-0.40;99.90
3980;DHT22;2004;52.452;13.120;2022-12-13T12:57:06;-0.40;99.90
3980;DHT22;2004;52.452;13.120;2022-12-13T13:05:52;-0.30;99.90
3980;DHT22;2004;52.452;13.120;2022-12-13T13:13:47;-0.30;99.90
3980;DHT22;2004;52.452;13.120;2022-12-13T13:21:47;-0.20;99.90
3980;DHT22;2004;52.452;13.120;2022-12-13T13:29:40;-0.10;99.90
3980;DHT22;2004;52.452;13.120;2022-12-13T13:37:45;-0.10;99.90
3980;DHT22;2004;52.452;13.120;2022-12-13T14:11:13;0.00;99.90
3980;DHT22;2004;52.452;13.120;2022-12-13T14:19:16;0.00;99.90
3980;DHT22;2004;52.452;13.120;2022-12-13T14:35:27;0.00;99.90
3980;DHT22;2004;52.452;13.120;2022-12-13T14:43:28;-0.10;99.90
3980;DHT22;2004;52.452;13.120;2022-12-13T14:51:33;-0.20;99.90
3980;DHT22;2004;52.452;13.120;2022-12-13T14:59:25;-0.30;99.90
3980;DHT22;2004;52.452;13.120;2022-12-13T15:07:25;-0.40;99.90
3980;DHT22;2004;52.452;13.120;2022-12-13T15:31:11;-0.60;99.90
3980;DHT22;2004;52.452;13.120;2022-12-13T15:39:03;-0.70;99.90
3980;DHT22;2004;52.452;13.120;2022-12-13T15:47:11;-0.80;99.90
3980;DHT22;2004;52.452;13.120;2022-12-13T16:03:10;-1.00;99.90
3980;DHT22;2004;52.452;13.120;2022-12-13T16:11:05;-1.10;99.90
3980;DHT22;2004;52.452;13.120;2022-12-13T16:18:58;-1.10;99.90
3980;DHT22;2004;52.452;13.120;2022-12-13T16:26:49;-1.20;99.90
3980;DHT22;2004;52.452;13.120;2022-12-13T16:34:39;-1.30;99.90
3980;DHT22;2004;52.452;13.120;2022-12-13T16:42:30;-1.40;99.90
3980;DHT22;2004;52.452;13.120;2022-12-13T16:50:20;-1.60;99.90
3980;DHT22;2004;52.452;13.120;2022-12-13T16:58:13;-1.60;99.90
3980;DHT22;2004;52.452;13.120;2022-12-13T17:06:05;-1.70;99.90
3980;DHT22;2004;52.452;13.120;2022-12-13T17:13:57;-1.80;99.90
3980;DHT22;2004;52.452;13.120;2022-12-13T17:21:48;-1.90;99.90
3980;DHT22;2004;52.452;13.120;2022-12-13T17:29:38;-2.00;99.90
3980;DHT22;2004;52.452;13.120;2022-12-13T17:37:32;-2.00;99.90
3980;DHT22;2004;52.452;13.120;2022-12-13T17:45:22;-2.10;99.90
3980;DHT22;2004;52.452;13.120;2022-12-13T17:53:13;-2.10;99.90
3980;DHT22;2004;52.452;13.120;2022-12-13T18:01:15;-2.20;99.90
3980;DHT22;2004;52.452;13.120;2022-12-13T18:09:07;-2.20;99.90
3980;DHT22;2004;52.452;13.120;2022-12-13T18:16:58;-2.30;99.90
3980;DHT22;2004;52.452;13.120;2022-12-13T18:24:48;-2.30;99.90
3980;DHT22;2004;52.452;13.120;2022-12-13T18:32:39;-2.40;99.90
3980;DHT22;2004;52.452;13.120;2022-12-13T18:40:30;-2.40;99.90
3980;DHT22;2004;52.452;13.120;2022-12-13T18:48:21;-2.60;99.90
3980;DHT22;2004;52.452;13.120;2022-12-13T18:56:14;-2.60;99.90
3980;DHT22;2004;52.452;13.120;2022-12-13T19:04:04;-2.70;99.90
3980;DHT22;2004;52.452;13.120;2022-12-13T19:11:55;-2.70;99.90
3980;DHT22;2004;52.452;13.120;2022-12-13T19:19:46;-2.80;99.90
3980;DHT22;2004;52.452;13.120;2022-12-13T19:27:37;-2.90;99.90
3980;DHT22;2004;52.452;13.120;2022-12-13T19:35:28;-2.90;99.90
3980;DHT22;2004;52.452;13.120;2022-12-13T19:43:19;-3.00;99.90
3980;DHT22;2004;52.452;13.120;2022-12-13T19:51:10;-3.00;99.90
3980;DHT22;2004;52.452;13.120;2022-12-13T19:59:01;-3.00;99.90
3980;DHT22;2004;52.452;13.120;2022-12-13T20:06:51;-3.10;99.90
3980;DHT22;2004;52.452;13.120;2022-12-13T20:14:42;-3.20;99.90
3980;DHT22;2004;52.452;13.120;2022-12-13T20:22:32;-3.20;99.90
3980;DHT22;2004;52.452;13.120;2022-12-13T20:30:23;-3.20;99.90
3980;DHT22;2004;52.452;13.120;2022-12-13T20:38:13;-3.30;99.90
3980;DHT22;2004;52.452;13.120;2022-12-13T20:46:09;-3.40;99.90
3980;DHT22;2004;52.452;13.120;2022-12-13T20:54:00;-3.50;99.90
3980;DHT22;2004;52.452;13.120;2022-12-13T21:01:50;-3.60;99.90
3980;DHT22;2004;52.452;13.120;2022-12-13T21:09:41;-3.60;99.90
3980;DHT22;2004;52.452;13.120;2022-12-13T21:17:31;-3.70;99.90
3980;DHT22;2004;52.452;13.120;2022-12-13T21:25:21;-3.80;99.90
3980;DHT22;2004;52.452;13.120;2022-12-13T21:33:12;-3.80;99.90
3980;DHT22;2004;52.452;13.120;2022-12-13T21:41:04;-3.90;99.90
3980;DHT22;2004;52.452;13.120;2022-12-13T21:48:57;-4.00;99.90
3980;DHT22;2004;52.452;13.120;2022-12-13T21:56:48;-4.00;99.90
3980;DHT22;2004;52.452;13.120;2022-12-13T22:04:58;-4.00;99.90
3980;DHT22;2004;52.452;13.120;2022-12-13T22:12:48;-4.10;99.90
3980;DHT22;2004;52.452;13.120;2022-12-13T22:20:38;-4.10;99.90
3980;DHT22;2004;52.452;13.120;2022-12-13T22:28:29;-4.20;99.90
3980;DHT22;2004;52.452;13.120;2022-12-13T22:36:19;-4.20;99.90
3980;DHT22;2004;52.452;13.120;2022-12-13T22:44:10;-4.30;99.90
3980;DHT22;2004;52.452;13.120;2022-12-13T22:52:01;-4.40;99.90
3980;DHT22;2004;52.452;13.120;2022-12-13T22:59:52;-4.50;99.90
3980;DHT22;2004;52.452;13.120;2022-12-13T23:07:42;-4.50;99.90
3980;DHT22;2004;52.452;13.120;2022-12-13T23:15:36;-4.50;99.90
3980;DHT22;2004;52.452;13.120;2022-12-13T23:23:28;-4.60;99.90
3980;DHT22;2004;52.452;13.120;2022-12-13T23:31:20;-4.60;99.90
3980;DHT22;2004;52.452;13.120;2022-12-13T23:39:10;-4.70;99.90
3980;DHT22;2004;52.452;13.120;2022-12-13T23:47:01;-4.70;99.90
3980;DHT22;2004;52.452;13.120;2022-12-13T23:54:51;-4.80;99.90
